Hewitt, WI

2:26 PM CDT on September 03, 2015 (GMT -0500)
APRSWXNET | | Change Station
CLOSE
Current Station
Personal Weather Station
Location: Hewitt, WI
Elevation: 1220 ft
Nearby Weather Stations

Elev 1220 ft 44.64 °N, 90.10 °W | Updated 14 hours ago

Mostly Cloudy
Mostly Cloudy
81 °F
Feels Like 83 °F
N
5
Wind Variable Wind from ENE
Gusts mph

Today
High -- | Low -- °F
--% Chance of Precip.
Yesterday
High -- | Low -- °F
Precip. -- in
6:24 AM 7:33 PM
Waning Gibbous, 67% visible
Pressure 29.98 in
Visibility 5.0 miles
Clouds Overcast 1500 ft
Heat Index 83 °F
Dew Point 66 °F
Humidity 61%
Rainfall in
Snow Depth Not available.
UV 2 out of 12
Pollen 6.40 out of 12
Air Quality Not available.
Flu Activity Not available.
SPECI KMFI 031924Z AUTO 09004KT 5SM HZ OVC015 23/18 A2998 RMK AO2 T02330178
Pressure 29.98 in
Visibility 5.0 miles
Clouds Overcast 1500 ft
Heat Index 83 °F
Dew Point 66 °F
Humidity 61%
Rainfall in
Snow Depth Not available.
UV 2 out of 12
Pollen 6.40 out of 12
Air Quality Not available.
Flu Activity Not available.
SPECI KMFI 031924Z AUTO 09004KT 5SM HZ OVC015 23/18 A2998 RMK AO2 T02330178

10-Day Weather Forecast

×

Almanac

Astronomy

Sep. 03, 2015 Rise Set
Actual Time
Civil Twilight
Nautical Twilight
Astronomical Twilight
Moon
Length of Visible Light
Length of Day
Tomorrow will be .
, % of the Moon is Illuminated

Today's Extremes

State Highs State Lows

Community

WunderPhotos

Upload Photos

1,852,014 photos uploaded!

WunderBlogs® & News

Nearby

Air Quality

  Air Quality AQ Index Pollutant
Not available.

Snow Depth

Station Depth Elevation

Earthquake Activity

City Distance Mag. Time & Date
Minimum magnitude displayed is 2.5.

Coastal Water Temperatures

Place Temperature

Stations

Nearby Weather Stations

Station Location Temp. Windchill Dew Point Humidity Wind Precip. Elev Updated Type